createdAt,value
2023-05-07T00:03:01.722Z,20.3
2023-05-07T00:08:40.605Z,20.3
2023-05-07T00:14:16.883Z,20.3
2023-05-07T00:19:53.915Z,20.3
2023-05-07T00:25:32.301Z,20.3
2023-05-07T00:31:24.069Z,20.3
2023-05-07T00:37:16.923Z,20.3
2023-05-07T00:43:09.471Z,20.2
2023-05-07T00:48:46.085Z,20.2
2023-05-07T00:54:37.759Z,20.2
2023-05-07T01:00:31.201Z,20.2
2023-05-07T01:06:29.176Z,20.2
2023-05-07T01:12:06.807Z,20.2
2023-05-07T01:17:59.383Z,20.2
2023-05-07T01:23:51.169Z,20.2
2023-05-07T01:29:43.068Z,20.1
2023-05-07T01:35:35.650Z,20.2
2023-05-07T01:41:27.672Z,20.2
2023-05-07T01:47:19.841Z,20.1
2023-05-07T01:53:13.351Z,20.1
2023-05-07T01:59:03.950Z,20.1
2023-05-07T02:04:57.850Z,20.1
2023-05-07T02:10:49.208Z,20.1
2023-05-07T02:16:41.547Z,20.1
2023-05-07T02:22:36.445Z,20.1
2023-05-07T02:28:29.271Z,20.1
2023-05-07T02:34:20.631Z,20.1
2023-05-07T02:40:12.120Z,20.1
2023-05-07T02:46:04.779Z,20.1
2023-05-07T02:51:58.302Z,20.1
2023-05-07T02:57:50.950Z,20.1
2023-05-07T03:03:44.976Z,20.1
2023-05-07T03:09:36.699Z,20.1
2023-05-07T03:15:28.531Z,20
2023-05-07T03:21:22.112Z,20.1
2023-05-07T03:27:15.762Z,20.1
2023-05-07T03:33:07.798Z,20.1
2023-05-07T03:39:00.246Z,20
2023-05-07T03:44:53.184Z,20
2023-05-07T03:50:45.125Z,20
2023-05-07T03:56:38.267Z,20
2023-05-07T04:02:29.783Z,20
2023-05-07T04:08:23.960Z,20
2023-05-07T04:14:16.401Z,20
2023-05-07T04:20:08.322Z,20
2023-05-07T04:26:00.559Z,20
2023-05-07T04:31:53.599Z,20.1
2023-05-07T04:37:44.946Z,20
2023-05-07T04:43:37.272Z,20
2023-05-07T04:49:30.397Z,20
2023-05-07T04:55:21.717Z,20
2023-05-07T05:01:14.861Z,20
2023-05-07T05:07:08.395Z,20
2023-05-07T05:12:59.703Z,20
2023-05-07T05:18:52.588Z,20.1
2023-05-07T05:24:44.441Z,20.1
2023-05-07T05:30:37.738Z,20.1
2023-05-07T05:36:29.766Z,20.1
2023-05-07T05:42:22.062Z,20.1
2023-05-07T05:48:00.573Z,20.1
2023-05-07T05:53:53.390Z,20.1
2023-05-07T05:59:46.169Z,20.1
2023-05-07T06:05:38.168Z,20.1
2023-05-07T06:11:29.796Z,20.2
2023-05-07T06:17:22.979Z,20.3
2023-05-07T06:23:14.909Z,20.2
2023-05-07T06:29:07.639Z,20.2
2023-05-07T06:35:00.757Z,20.2
2023-05-07T06:40:52.465Z,20.3
2023-05-07T06:46:44.864Z,20.3
2023-05-07T06:52:22.663Z,20.4
2023-05-07T06:58:15.474Z,20.3
2023-05-07T07:04:08.325Z,20.4
2023-05-07T07:10:01.086Z,20.3
2023-05-07T07:15:52.980Z,20.4
2023-05-07T07:21:46.519Z,20.4
2023-05-07T07:27:40.967Z,20.4
2023-05-07T07:33:34.188Z,20.4
2023-05-07T07:39:37.665Z,20.5
2023-05-07T07:45:31.510Z,20.4
2023-05-07T07:51:41.878Z,20.5
2023-05-07T07:57:39.646Z,20.5
2023-05-07T08:03:37.012Z,20.5
2023-05-07T08:09:17.794Z,20.5
2023-05-07T08:15:12.273Z,20.5
2023-05-07T08:21:06.778Z,20.5
2023-05-07T08:27:01.269Z,20.6
2023-05-07T08:32:56.949Z,20.6
2023-05-07T08:38:52.513Z,20.6
2023-05-07T08:44:48.433Z,20.6
2023-05-07T08:50:43.275Z,20.6
2023-05-07T08:56:39.196Z,20.8
2023-05-07T09:02:32.625Z,20.8
2023-05-07T09:08:15.039Z,20.8
2023-05-07T09:14:09.944Z,20.8
2023-05-07T09:19:48.843Z,20.8
2023-05-07T09:25:45.967Z,20.9
2023-05-07T09:31:43.244Z,20.9
2023-05-07T09:37:38.987Z,20.9
2023-05-07T09:43:35.787Z,20.9
2023-05-07T09:49:30.486Z,20.9
2023-05-07T09:55:23.536Z,20.9
2023-05-07T10:01:21.441Z,21
2023-05-07T10:07:17.869Z,20.9
2023-05-07T10:13:11.126Z,21
2023-05-07T10:19:07.523Z,20.9
2023-05-07T10:25:04.100Z,20.9
2023-05-07T10:31:00.971Z,20.9
2023-05-07T10:36:56.229Z,20.9
2023-05-07T10:42:35.590Z,20.9
2023-05-07T10:48:45.193Z,20.9
2023-05-07T10:54:28.113Z,20.9
2023-05-07T11:00:39.197Z,20.9
2023-05-07T11:06:34.503Z,20.9
2023-05-07T11:12:28.663Z,20.9
2023-05-07T11:18:26.917Z,20.9
2023-05-07T11:24:23.039Z,20.9
2023-05-07T11:30:17.869Z,20.9
2023-05-07T11:35:57.327Z,20.8
2023-05-07T11:41:52.853Z,20.8
2023-05-07T11:47:51.233Z,20.8
2023-05-07T11:53:47.550Z,20.8
2023-05-07T11:59:41.429Z,20.8
2023-05-07T12:05:36.928Z,20.8
2023-05-07T12:11:18.650Z,20.8
2023-05-07T12:16:58.731Z,20.8
2023-05-07T12:22:37.028Z,20.8
2023-05-07T12:28:01.814Z,20.7
2023-05-07T12:33:55.451Z,20.7
2023-05-07T12:39:48.816Z,20.8
2023-05-07T12:45:29.710Z,20.8
2023-05-07T12:51:08.591Z,20.8
2023-05-07T12:56:46.277Z,20.7
2023-05-07T13:02:26.018Z,20.8
2023-05-07T13:08:05.109Z,20.8
2023-05-07T13:13:45.472Z,20.7
2023-05-07T13:19:42.116Z,20.7
2023-05-07T13:25:21.442Z,20.8
2023-05-07T13:31:42.567Z,20.7
2023-05-07T13:37:37.163Z,20.7
2023-05-07T13:43:31.095Z,20.8
2023-05-07T13:49:22.742Z,20.8
2023-05-07T13:55:00.485Z,20.8
2023-05-07T14:01:08.079Z,20.8
2023-05-07T14:06:45.872Z,20.8
2023-05-07T14:12:41.601Z,20.8
2023-05-07T14:18:34.072Z,20.8
2023-05-07T14:24:37.957Z,20.8
2023-05-07T14:30:38.178Z,20.8
2023-05-07T14:36:30.064Z,20.8
2023-05-07T14:42:22.721Z,20.8
2023-05-07T14:48:15.736Z,20.8
2023-05-07T14:54:06.494Z,20.8
2023-05-07T15:00:00.973Z,20.8
2023-05-07T15:05:58.118Z,20.8
2023-05-07T15:11:49.086Z,20.8
2023-05-07T15:17:40.958Z,20.8
2023-05-07T15:23:36.792Z,20.8
2023-05-07T15:29:29.768Z,20.8
2023-05-07T15:35:22.674Z,20.8
2023-05-07T15:41:14.790Z,20.8
2023-05-07T15:47:06.266Z,20.9
2023-05-07T15:52:58.788Z,20.9
2023-05-07T15:58:51.384Z,20.9
2023-05-07T16:04:45.416Z,20.9
2023-05-07T16:10:38.134Z,20.9
2023-05-07T16:16:30.962Z,20.9
2023-05-07T16:22:25.045Z,20.9
2023-05-07T16:28:16.947Z,20.9
2023-05-07T16:34:08.306Z,20.9
2023-05-07T16:40:01.637Z,20.9
2023-05-07T16:45:56.497Z,21
2023-05-07T16:51:33.310Z,21
2023-05-07T16:57:10.213Z,21
2023-05-07T17:03:19.376Z,21
2023-05-07T17:09:13.387Z,21.1
2023-05-07T17:15:05.116Z,21.1
2023-05-07T17:20:57.404Z,21.1
2023-05-07T17:26:48.963Z,21.1
2023-05-07T17:32:41.645Z,21
2023-05-07T17:38:49.068Z,21
2023-05-07T17:44:25.554Z,21.1
2023-05-07T17:50:18.633Z,21
2023-05-07T17:56:18.050Z,21
2023-05-07T18:02:07.613Z,21
2023-05-07T18:07:59.221Z,21
2023-05-07T18:13:35.850Z,21
2023-05-07T18:19:28.322Z,21
2023-05-07T18:25:21.326Z,20.9
2023-05-07T18:31:13.417Z,20.9
2023-05-07T18:36:53.383Z,20.9
2023-05-07T18:42:44.982Z,21
2023-05-07T18:48:37.774Z,20.9
2023-05-07T18:54:29.821Z,20.9
2023-05-07T19:00:05.015Z,20.9
2023-05-07T19:05:57.372Z,20.9
2023-05-07T19:12:01.106Z,20.9
2023-05-07T19:17:56.296Z,20.9
2023-05-07T19:23:48.521Z,20.9
2023-05-07T19:30:01.611Z,20.9
2023-05-07T19:35:54.283Z,20.9
2023-05-07T19:41:32.029Z,20.9
2023-05-07T19:47:25.009Z,20.9
2023-05-07T19:53:19.601Z,20.9
2023-05-07T19:59:13.848Z,20.9
2023-05-07T20:05:08.574Z,20.9
2023-05-07T20:10:46.565Z,20.9
2023-05-07T20:16:25.782Z,20.9
2023-05-07T20:22:19.812Z,20.9
2023-05-07T20:27:56.093Z,20.8
2023-05-07T20:33:48.131Z,20.8
2023-05-07T20:39:40.299Z,20.8
2023-05-07T20:45:34.535Z,20.8
2023-05-07T20:51:27.307Z,20.8
2023-05-07T20:57:22.173Z,20.8
2023-05-07T21:03:14.789Z,20.8
2023-05-07T21:09:06.674Z,20.8
2023-05-07T21:14:58.841Z,20.8
2023-05-07T21:20:51.020Z,20.8
2023-05-07T21:26:42.508Z,20.8
2023-05-07T21:32:19.832Z,20.8
2023-05-07T21:38:11.885Z,20.8
2023-05-07T21:44:04.150Z,20.8
2023-05-07T21:49:56.421Z,20.8
2023-05-07T21:55:47.369Z,20.8
2023-05-07T22:01:55.158Z,20.7
2023-05-07T22:07:48.176Z,20.8
2023-05-07T22:13:39.378Z,20.8
2023-05-07T22:19:44.392Z,20.8
2023-05-07T22:25:37.782Z,20.7
2023-05-07T22:31:12.897Z,20.8
2023-05-07T22:37:08.326Z,20.7
2023-05-07T22:43:00.726Z,20.8
2023-05-07T22:48:53.485Z,20.7
2023-05-07T22:54:45.382Z,20.7
2023-05-07T23:00:37.127Z,20.7
2023-05-07T23:06:29.091Z,20.7
2023-05-07T23:12:20.764Z,20.7
2023-05-07T23:18:15.628Z,20.7
2023-05-07T23:24:07.175Z,20.6
2023-05-07T23:29:59.079Z,20.6
2023-05-07T23:35:51.498Z,20.6
2023-05-07T23:41:42.480Z,20.6
2023-05-07T23:47:33.253Z,20.7
2023-05-07T23:53:24.901Z,20.6
2023-05-07T23:59:15.054Z,20.6
